Time;durP1;ratioP1;P1;durP2;ratioP2;P2;SDS_P1;SDS_P2;PMS_P1;PMS_P2;Temp;Humidity;BMP_temperature;BMP_pressure;BME280_temperature;BME280_humidity;BME280_pressure;Samples;Min_cycle;Max_cycle;Signal;HPM_P1;HPM_P2
2022/01/26 00:06:44;;;;;;;44.10;21.85;;;;;;;;;;5091011;28;20646;-80
2022/01/26 00:09:13;;;;;;;41.30;20.80;;;;;;;;;;5088434;28;20196;-79
2022/01/26 00:11:41;;;;;;;43.38;20.60;;;;;;;;;;5089331;28;20189;-76
2022/01/26 00:14:13;;;;;;;38.72;19.48;;;;;;;;;;5086305;28;20221;-82
2022/01/26 00:16:42;;;;;;;39.33;21.02;;;;;;;;;;5077761;28;20313;-79
2022/01/26 00:19:11;;;;;;;40.30;19.70;;;;;;;;;;5072078;28;20256;-79
2022/01/26 00:21:44;;;;;;;41.95;21.73;;;;;;;;;;5071142;28;20960;-81
2022/01/26 00:24:37;;;;;;;36.30;19.08;;;;;;;;;;5090754;28;20278;-78
2022/01/26 00:27:20;;;;;;;35.67;19.55;;;;;;;;;;5089109;28;20196;-80
2022/01/26 00:30:00;;;;;;;42.38;20.83;;;;;;;;;;5089582;28;20197;-77
2022/01/26 00:40:36;;;;;;;41.85;20.90;;;;;;;;;;5069971;28;20197;-76
2022/01/26 00:43:13;;;;;;;44.22;23.00;;;;;;;;;;5070098;28;20240;-77
2022/01/26 00:45:40;;;;;;;40.83;20.10;;;;;;;;;;5068797;28;20704;-76
2022/01/26 00:48:09;;;;;;;42.13;20.90;;;;;;;;;;5082926;28;20280;-77
2022/01/26 00:50:38;;;;;;;37.40;20.90;;;;;;;;;;5091731;28;20201;-77
2022/01/26 00:53:06;;;;;;;38.35;18.23;;;;;;;;;;5092216;28;20480;-78
2022/01/26 00:55:35;;;;;;;32.20;18.27;;;;;;;;;;5076701;28;21595;-75
2022/01/26 00:58:02;;;;;;;33.17;17.70;;;;;;;;;;5077881;28;20189;-79
2022/01/26 01:00:30;;;;;;;28.95;17.10;;;;;;;;;;5090537;28;20193;-78
2022/01/26 01:02:58;;;;;;;33.55;17.63;;;;;;;;;;5091005;28;20194;-76
2022/01/26 01:05:29;;;;;;;31.27;15.60;;;;;;;;;;5091317;28;20213;-77
2022/01/26 01:08:02;;;;;;;40.13;17.60;;;;;;;;;;5094161;28;20542;-77
2022/01/26 01:10:30;;;;;;;32.38;18.20;;;;;;;;;;5093910;28;20250;-79
2022/01/26 01:12:59;;;;;;;28.23;15.55;;;;;;;;;;5095407;28;20220;-78
2022/01/26 01:15:27;;;;;;;29.88;16.70;;;;;;;;;;5096619;28;20225;-78
2022/01/26 01:18:04;;;;;;;33.13;19.10;;;;;;;;;;5079238;28;20208;-78
2022/01/26 01:20:48;;;;;;;39.25;18.20;;;;;;;;;;5083508;28;20189;-79
2022/01/26 01:23:39;;;;;;;33.67;18.13;;;;;;;;;;5094989;28;20193;-79
2022/01/26 01:26:36;;;;;;;38.00;19.75;;;;;;;;;;5094307;28;20259;-75
2022/01/26 01:29:18;;;;;;;33.55;17.77;;;;;;;;;;5093048;28;20197;-79
2022/01/26 01:32:11;;;;;;;27.98;16.67;;;;;;;;;;5071616;28;20217;-76
2022/01/26 01:34:39;;;;;;;36.65;18.13;;;;;;;;;;5061732;28;20256;-77
2022/01/26 01:37:08;;;;;;;32.38;16.60;;;;;;;;;;5057393;28;20206;-80
2022/01/26 01:39:36;;;;;;;34.10;19.65;;;;;;;;;;5050778;28;20199;-79
2022/01/26 01:42:08;;;;;;;30.35;15.93;;;;;;;;;;5065638;28;20538;-80
2022/01/26 01:44:36;;;;;;;39.38;17.88;;;;;;;;;;5067292;28;20218;-78
2022/01/26 01:47:05;;;;;;;29.60;16.15;;;;;;;;;;5071787;28;20560;-77
2022/01/26 01:49:32;;;;;;;31.92;17.55;;;;;;;;;;5071931;28;20283;-79
2022/01/26 01:52:02;;;;;;;34.35;17.48;;;;;;;;;;5080059;28;20208;-78
2022/01/26 01:54:31;;;;;;;32.80;17.20;;;;;;;;;;5080515;28;20220;-80
2022/01/26 01:56:59;;;;;;;34.42;17.48;;;;;;;;;;5089155;28;20242;-78
2022/01/26 01:59:27;;;;;;;33.33;18.50;;;;;;;;;;5092164;28;20210;-78
2022/01/26 02:01:55;;;;;;;40.15;20.40;;;;;;;;;;5094154;28;20531;-79
2022/01/26 02:04:23;;;;;;;34.75;20.17;;;;;;;;;;5090217;28;20205;-77
2022/01/26 02:06:50;;;;;;;42.88;20.10;;;;;;;;;;5093671;28;20203;-77
2022/01/26 02:09:17;;;;;;;39.58;19.35;;;;;;;;;;5081717;28;20181;-77
2022/01/26 02:11:45;;;;;;;33.00;19.10;;;;;;;;;;5079755;28;20194;-79
2022/01/26 02:14:19;;;;;;;44.05;20.02;;;;;;;;;;5085039;28;20747;-77
2022/01/26 02:16:51;;;;;;;43.13;23.13;;;;;;;;;;5093396;28;20197;-76
2022/01/26 02:19:47;;;;;;;35.92;19.17;;;;;;;;;;5092558;28;20197;-79
2022/01/26 02:49:40;;;;;;;44.50;21.60;;;;;;;;;;5091819;28;20220;-79
2022/01/26 02:52:18;;;;;;;44.33;22.50;;;;;;;;;;5091572;28;20669;-79
2022/01/26 02:54:56;;;;;;;55.97;24.10;;;;;;;;;;5091799;28;20237;-79
2022/01/26 02:57:42;;;;;;;46.90;22.08;;;;;;;;;;5092457;28;20197;-80
2022/01/26 03:00:17;;;;;;;52.63;26.02;;;;;;;;;;5092827;28;21430;-79
2022/01/26 03:02:50;;;;;;;47.05;23.17;;;;;;;;;;5092789;28;20197;-80
2022/01/26 03:05:20;;;;;;;53.60;27.05;;;;;;;;;;5077929;28;20224;-76
2022/01/26 03:07:53;;;;;;;54.70;26.65;;;;;;;;;;5076795;28;20194;-82
2022/01/26 03:10:25;;;;;;;54.90;25.23;;;;;;;;;;5076570;28;20196;-78
2022/01/26 03:12:58;;;;;;;52.70;24.08;;;;;;;;;;5089321;28;20669;-80
2022/01/26 03:15:30;;;;;;;59.72;24.70;;;;;;;;;;5092410;28;20225;-80
2022/01/26 03:20:40;;;;;;;60.90;29.73;;;;;;;;;;5085258;28;20268;-80
2022/01/26 03:28:43;;;;;;;63.08;26.77;;;;;;;;;;5077970;28;20201;-79
2022/01/26 03:33:57;;;;;;;61.85;28.55;;;;;;;;;;5070095;28;20288;-79
2022/01/26 03:36:31;;;;;;;59.85;24.85;;;;;;;;;;5070386;28;20222;-78
2022/01/26 03:39:05;;;;;;;57.28;25.80;;;;;;;;;;5090610;28;20242;-81
2022/01/26 03:41:39;;;;;;;58.83;26.00;;;;;;;;;;5089510;28;20197;-78
2022/01/26 03:44:07;;;;;;;58.13;25.17;;;;;;;;;;5077872;28;20562;-78
2022/01/26 03:46:34;;;;;;;60.85;26.08;;;;;;;;;;5075520;28;20193;-81
2022/01/26 03:49:02;;;;;;;59.08;26.42;;;;;;;;;;5070784;28;20204;-75
2022/01/26 03:51:29;;;;;;;50.28;25.83;;;;;;;;;;5090873;28;20194;-77
2022/01/26 03:53:56;;;;;;;62.13;26.55;;;;;;;;;;5089994;28;20227;-76
2022/01/26 03:56:24;;;;;;;56.22;26.55;;;;;;;;;;5089598;28;20221;-79
2022/01/26 03:58:52;;;;;;;48.78;22.63;;;;;;;;;;5085944;28;20201;-78
2022/01/26 04:01:19;;;;;;;55.42;25.27;;;;;;;;;;5075739;28;20201;-77
2022/01/26 04:03:47;;;;;;;53.33;24.33;;;;;;;;;;5081958;28;20288;-79
2022/01/26 04:06:14;;;;;;;45.13;21.60;;;;;;;;;;5088208;28;20283;-77
2022/01/26 04:08:43;;;;;;;46.25;21.88;;;;;;;;;;5089448;28;20197;-78
2022/01/26 04:11:28;;;;;;;48.30;22.15;;;;;;;;;;5091689;28;20610;-78
2022/01/26 04:13:57;;;;;;;45.05;20.10;;;;;;;;;;5089666;28;20244;-78
2022/01/26 04:16:24;;;;;;;44.42;21.35;;;;;;;;;;5084848;28;21040;-79
2022/01/26 04:18:53;;;;;;;54.88;23.65;;;;;;;;;;5075748;28;20183;-80
2022/01/26 04:21:28;;;;;;;46.20;21.48;;;;;;;;;;5073474;28;20194;-78
2022/01/26 04:23:56;;;;;;;46.45;21.67;;;;;;;;;;5072048;28;20240;-79
2022/01/26 04:26:29;;;;;;;47.92;21.17;;;;;;;;;;5091207;28;20264;-79
2022/01/26 04:29:02;;;;;;;62.58;26.02;;;;;;;;;;5091487;28;20548;-78
2022/01/26 04:31:29;;;;;;;58.47;24.70;;;;;;;;;;5090674;28;20274;-82
2022/01/26 04:33:56;;;;;;;51.42;23.77;;;;;;;;;;5081646;28;20213;-77
2022/01/26 04:36:28;;;;;;;49.50;23.65;;;;;;;;;;5074763;28;20230;-79
2022/01/26 04:38:56;;;;;;;59.10;26.00;;;;;;;;;;5088355;28;20221;-77
2022/01/26 04:41:30;;;;;;;56.83;26.80;;;;;;;;;;5088444;28;20193;-78
2022/01/26 04:44:04;;;;;;;60.10;28.38;;;;;;;;;;5086206;28;20530;-79
2022/01/26 04:46:31;;;;;;;56.80;24.58;;;;;;;;;;5091722;28;20646;-80
2022/01/26 04:48:58;;;;;;;59.17;27.92;;;;;;;;;;5085001;28;20292;-79
2022/01/26 04:51:25;;;;;;;69.68;31.13;;;;;;;;;;5077153;28;20193;-77
2022/01/26 04:53:52;;;;;;;57.67;26.05;;;;;;;;;;5080001;28;20193;-78
2022/01/26 04:56:20;;;;;;;58.80;25.75;;;;;;;;;;5088840;28;20227;-78
2022/01/26 04:58:47;;;;;;;69.22;29.48;;;;;;;;;;5089018;28;20650;-81
2022/01/26 05:01:15;;;;;;;63.67;27.30;;;;;;;;;;5090964;28;20192;-79
2022/01/26 05:03:42;;;;;;;72.07;29.10;;;;;;;;;;5090872;28;20197;-79
2022/01/26 05:06:09;;;;;;;63.95;28.98;;;;;;;;;;5080162;28;20204;-79
2022/01/26 05:08:37;;;;;;;65.22;30.13;;;;;;;;;;5075462;28;20225;-78
2022/01/26 05:11:05;;;;;;;63.47;29.92;;;;;;;;;;5086743;28;20189;-79
2022/01/26 05:13:33;;;;;;;63.97;28.40;;;;;;;;;;5090611;28;20628;-78
2022/01/26 05:16:00;;;;;;;72.30;28.48;;;;;;;;;;5089905;28;20221;-80
2022/01/26 05:18:29;;;;;;;66.13;29.65;;;;;;;;;;5090228;28;20193;-80
2022/01/26 05:20:57;;;;;;;64.10;28.42;;;;;;;;;;5090494;28;20193;-79
2022/01/26 05:23:24;;;;;;;65.47;28.50;;;;;;;;;;5090906;28;20305;-80
2022/01/26 05:25:51;;;;;;;64.60;28.98;;;;;;;;;;5093088;28;20225;-77
2022/01/26 05:28:18;;;;;;;70.20;29.20;;;;;;;;;;5083026;28;20198;-79
2022/01/26 05:30:46;;;;;;;63.15;29.85;;;;;;;;;;5076030;28;20646;-78
2022/01/26 05:33:13;;;;;;;60.70;27.40;;;;;;;;;;5069269;28;20202;-78
2022/01/26 05:35:42;;;;;;;61.05;26.05;;;;;;;;;;5068942;28;20228;-78
2022/01/26 05:38:09;;;;;;;59.10;26.08;;;;;;;;;;5070518;28;20189;-80
2022/01/26 05:40:36;;;;;;;63.38;27.98;;;;;;;;;;5087102;28;20198;-77
2022/01/26 05:43:04;;;;;;;80.63;32.15;;;;;;;;;;5075036;28;20200;-79
2022/01/26 05:45:34;;;;;;;69.97;29.48;;;;;;;;;;5092155;28;20692;-77
2022/01/26 05:48:04;;;;;;;75.22;28.25;;;;;;;;;;5091182;28;20221;-77
2022/01/26 05:50:32;;;;;;;71.32;29.92;;;;;;;;;;5082701;28;20281;-78
2022/01/26 05:53:02;;;;;;;71.57;31.10;;;;;;;;;;5074730;28;20204;-78
2022/01/26 05:55:29;;;;;;;71.72;31.65;;;;;;;;;;5084978;28;20585;-76
2022/01/26 05:57:56;;;;;;;79.50;35.17;;;;;;;;;;5091762;28;20185;-78
2022/01/26 06:00:23;;;;;;;77.32;32.70;;;;;;;;;;5093866;28;20204;-80
2022/01/26 06:02:50;;;;;;;66.75;29.10;;;;;;;;;;5090193;28;20208;-78
2022/01/26 06:05:17;;;;;;;72.15;29.45;;;;;;;;;;5088163;28;20717;-79
2022/01/26 06:07:44;;;;;;;70.45;30.52;;;;;;;;;;5068678;28;20221;-79
2022/01/26 06:10:13;;;;;;;83.65;35.65;;;;;;;;;;5074401;28;20626;-78
2022/01/26 06:12:40;;;;;;;74.63;31.77;;;;;;;;;;5087570;28;20197;-81
2022/01/26 06:15:07;;;;;;;75.22;31.48;;;;;;;;;;5089319;28;20219;-78
2022/01/26 06:17:35;;;;;;;76.53;31.48;;;;;;;;;;5092881;28;20670;-77
2022/01/26 06:20:02;;;;;;;83.07;31.13;;;;;;;;;;5093758;28;20197;-79
2022/01/26 06:22:29;;;;;;;84.80;34.17;;;;;;;;;;5084045;28;20200;-78
2022/01/26 06:24:58;;;;;;;85.00;34.28;;;;;;;;;;5077140;28;20210;-75
2022/01/26 06:27:27;;;;;;;67.60;32.28;;;;;;;;;;5086606;28;20681;-78
2022/01/26 06:29:54;;;;;;;72.13;33.28;;;;;;;;;;5092835;28;20201;-78
2022/01/26 06:32:21;;;;;;;78.40;31.58;;;;;;;;;;5072081;28;20194;-79
2022/01/26 06:34:48;;;;;;;81.25;32.90;;;;;;;;;;5072457;28;20305;-79
2022/01/26 06:37:16;;;;;;;75.88;31.85;;;;;;;;;;5072010;28;20218;-77
2022/01/26 06:39:43;;;;;;;72.20;33.63;;;;;;;;;;5075235;28;20651;-79
2022/01/26 06:42:14;;;;;;;72.32;30.42;;;;;;;;;;5077609;28;20669;-77
2022/01/26 06:44:52;;;;;;;71.60;32.78;;;;;;;;;;5086167;28;20221;-77
2022/01/26 06:47:35;;;;;;;76.97;31.98;;;;;;;;;;5090264;28;20280;-78
2022/01/26 06:50:03;;;;;;;87.18;32.47;;;;;;;;;;5078910;28;20200;-77
2022/01/26 06:52:31;;;;;;;82.50;34.65;;;;;;;;;;5083903;28;20285;-78
2022/01/26 06:54:58;;;;;;;68.50;31.45;;;;;;;;;;5084611;28;20214;-80
2022/01/26 06:57:25;;;;;;;69.40;30.67;;;;;;;;;;5078442;28;20225;-80
2022/01/26 06:59:53;;;;;;;64.75;28.83;;;;;;;;;;5081449;28;20219;-79
2022/01/26 07:02:21;;;;;;;66.88;29.98;;;;;;;;;;5090697;28;20515;-78
2022/01/26 07:04:48;;;;;;;67.85;32.83;;;;;;;;;;5090920;28;20577;-78
2022/01/26 07:07:15;;;;;;;79.40;31.25;;;;;;;;;;5078821;28;20209;-77
2022/01/26 07:09:42;;;;;;;69.85;30.85;;;;;;;;;;5082790;28;20193;-76
2022/01/26 07:12:10;;;;;;;70.82;31.80;;;;;;;;;;5086755;28;20848;-77
2022/01/26 07:22:41;;;;;;;68.03;28.50;;;;;;;;;;5076991;28;20205;-77
2022/01/26 07:25:09;;;;;;;84.47;33.90;;;;;;;;;;5070715;28;20221;-78
2022/01/26 07:27:36;;;;;;;73.38;33.22;;;;;;;;;;5073005;28;20201;-78
2022/01/26 07:30:03;;;;;;;74.28;31.95;;;;;;;;;;5078709;28;20197;-78
2022/01/26 07:32:34;;;;;;;74.43;32.13;;;;;;;;;;5077068;28;20190;-77
2022/01/26 07:35:01;;;;;;;61.28;30.10;;;;;;;;;;5088605;28;20225;-77
2022/01/26 07:37:28;;;;;;;70.45;32.55;;;;;;;;;;5090628;28;20240;-76
2022/01/26 07:40:04;;;;;;;68.03;30.58;;;;;;;;;;5089071;28;20194;-77
2022/01/26 07:42:32;;;;;;;70.97;31.77;;;;;;;;;;5091361;28;20191;-76
2022/01/26 07:45:00;;;;;;;75.75;33.75;;;;;;;;;;5082722;28;20210;-79
2022/01/26 07:47:27;;;;;;;75.05;32.90;;;;;;;;;;5075778;28;20193;-78
2022/01/26 07:49:56;;;;;;;72.95;30.17;;;;;;;;;;5073592;28;20190;-78
2022/01/26 07:52:25;;;;;;;79.35;34.92;;;;;;;;;;5090286;28;20190;-81
2022/01/26 07:54:53;;;;;;;80.38;32.72;;;;;;;;;;5086756;28;20210;-81
2022/01/26 07:57:21;;;;;;;70.25;32.50;;;;;;;;;;5080673;28;20686;-80
2022/01/26 07:59:48;;;;;;;78.78;33.45;;;;;;;;;;5090107;28;20200;-78
2022/01/26 08:02:15;;;;;;;74.30;32.20;;;;;;;;;;5093057;28;20201;-79
2022/01/26 08:04:43;;;;;;;87.63;34.58;;;;;;;;;;5088357;28;20245;-77
2022/01/26 08:07:11;;;;;;;78.20;34.20;;;;;;;;;;5078579;28;20287;-79
2022/01/26 08:09:43;;;;;;;87.47;34.90;;;;;;;;;;5076182;28;20196;-80
2022/01/26 08:12:11;;;;;;;84.15;31.65;;;;;;;;;;5074714;28;21477;-78
2022/01/26 08:14:38;;;;;;;87.10;32.78;;;;;;;;;;5073168;28;20751;-81
2022/01/26 08:17:06;;;;;;;76.90;32.50;;;;;;;;;;5090869;28;20213;-78
2022/01/26 08:19:33;;;;;;;82.57;34.05;;;;;;;;;;5090545;28;20234;-80
2022/01/26 08:22:01;;;;;;;68.18;29.42;;;;;;;;;;5092543;28;20205;-83
2022/01/26 08:24:30;;;;;;;90.38;33.80;;;;;;;;;;5092569;28;20217;-77
2022/01/26 08:27:01;;;;;;;80.38;32.78;;;;;;;;;;5091488;28;20292;-76
2022/01/26 08:29:32;;;;;;;78.50;30.90;;;;;;;;;;5089643;28;20194;-79
2022/01/26 08:32:00;;;;;;;77.45;32.30;;;;;;;;;;5076452;28;20198;-78
2022/01/26 08:34:27;;;;;;;76.70;32.40;;;;;;;;;;5071697;28;20221;-80
2022/01/26 08:36:54;;;;;;;88.55;35.03;;;;;;;;;;5070646;28;20229;-79
2022/01/26 08:39:21;;;;;;;94.20;36.22;;;;;;;;;;5083926;28;20189;-80
2022/01/26 08:41:50;;;;;;;87.10;32.22;;;;;;;;;;5091833;28;20193;-79
2022/01/26 08:44:17;;;;;;;77.85;30.85;;;;;;;;;;5091220;28;20213;-82
2022/01/26 08:46:44;;;;;;;86.88;31.85;;;;;;;;;;5079842;28;20208;-78
2022/01/26 08:49:12;;;;;;;75.07;30.05;;;;;;;;;;5076545;28;20201;-77
2022/01/26 08:51:40;;;;;;;78.13;30.35;;;;;;;;;;5081384;28;20192;-82
2022/01/26 08:54:07;;;;;;;77.60;32.28;;;;;;;;;;5069867;28;20214;-83
2022/01/26 08:56:35;;;;;;;87.15;33.58;;;;;;;;;;5067942;28;20224;-81
2022/01/26 08:59:04;;;;;;;85.45;32.00;;;;;;;;;;5070489;28;21880;-80
2022/01/26 09:01:31;;;;;;;82.55;32.63;;;;;;;;;;5080313;28;20658;-81
2022/01/26 09:03:58;;;;;;;66.57;27.85;;;;;;;;;;5083992;28;20219;-84
2022/01/26 09:06:25;;;;;;;73.90;31.35;;;;;;;;;;5076402;28;20186;-84
2022/01/26 09:09:00;;;;;;;73.30;28.13;;;;;;;;;;5074486;28;20861;-81
2022/01/26 09:11:28;;;;;;;73.25;31.92;;;;;;;;;;5073114;28;20184;-81
2022/01/26 09:13:58;;;;;;;68.15;30.58;;;;;;;;;;5076637;28;20189;-80
2022/01/26 09:16:29;;;;;;;68.43;27.20;;;;;;;;;;5083874;28;20212;-78
2022/01/26 09:18:59;;;;;;;77.80;32.60;;;;;;;;;;5075476;28;20678;-81
2022/01/26 09:21:26;;;;;;;74.13;31.80;;;;;;;;;;5076625;28;20194;-81
2022/01/26 09:23:54;;;;;;;71.28;31.15;;;;;;;;;;5072324;28;20210;-79
2022/01/26 09:26:21;;;;;;;62.20;29.08;;;;;;;;;;5074295;28;20651;-80
2022/01/26 09:28:48;;;;;;;73.65;31.25;;;;;;;;;;5072343;28;20753;-78
2022/01/26 09:31:15;;;;;;;78.50;33.53;;;;;;;;;;5078404;28;20559;-79
2022/01/26 09:33:44;;;;;;;66.30;30.92;;;;;;;;;;5091452;28;20195;-79
2022/01/26 09:36:13;;;;;;;78.53;32.38;;;;;;;;;;5087985;28;20679;-76
2022/01/26 09:38:40;;;;;;;79.22;31.75;;;;;;;;;;5083909;28;20193;-79
2022/01/26 09:41:07;;;;;;;82.10;32.25;;;;;;;;;;5074897;28;20563;-79
2022/01/26 09:43:36;;;;;;;84.05;32.08;;;;;;;;;;5078236;28;20552;-77
2022/01/26 09:46:03;;;;;;;78.50;32.42;;;;;;;;;;5083767;28;20196;-80
2022/01/26 09:48:30;;;;;;;80.85;31.55;;;;;;;;;;5092776;28;20190;-77
2022/01/26 09:50:58;;;;;;;80.78;31.50;;;;;;;;;;5091181;28;20201;-79
2022/01/26 09:53:29;;;;;;;76.40;30.52;;;;;;;;;;5072991;28;20182;-79
2022/01/26 09:55:58;;;;;;;76.10;30.70;;;;;;;;;;5086821;28;20224;-79
2022/01/26 09:58:25;;;;;;;81.03;32.90;;;;;;;;;;5091418;28;20213;-79
2022/01/26 10:00:57;;;;;;;87.32;35.28;;;;;;;;;;5079644;28;20607;-79
2022/01/26 10:03:27;;;;;;;80.47;33.42;;;;;;;;;;5072733;28;20194;-79
2022/01/26 10:05:56;;;;;;;72.82;31.75;;;;;;;;;;5085412;28;20213;-81
2022/01/26 10:08:50;;;;;;;84.45;32.50;;;;;;;;;;5074918;28;20190;-81
2022/01/26 10:17:18;;;;;;;74.28;30.45;;;;;;;;;;5094633;28;20228;-77
2022/01/26 10:19:35;;;;;;;85.32;32.45;;;;;;;;;;5078976;28;20227;-81
2022/01/26 10:22:02;;;;;;;80.22;32.80;;;;;;;;;;5077582;28;20198;-78
2022/01/26 10:24:31;;;;;;;86.60;31.48;;;;;;;;;;5078359;28;20209;-81
2022/01/26 10:27:00;;;;;;;78.25;30.73;;;;;;;;;;5071474;28;20194;-80
2022/01/26 10:29:28;;;;;;;82.90;31.20;;;;;;;;;;5072906;28;20821;-80
2022/01/26 10:31:55;;;;;;;96.10;36.17;;;;;;;;;;5083325;28;20600;-80
2022/01/26 10:34:23;;;;;;;92.43;32.53;;;;;;;;;;5092513;28;20575;-80
2022/01/26 10:36:52;;;;;;;86.72;33.75;;;;;;;;;;5080696;28;20309;-79
2022/01/26 10:39:23;;;;;;;93.57;34.47;;;;;;;;;;5072889;28;20194;-78
2022/01/26 10:41:54;;;;;;;93.50;33.28;;;;;;;;;;5086756;28;20228;-79
2022/01/26 10:44:27;;;;;;;104.45;33.58;;;;;;;;;;5078493;28;20213;-81
2022/01/26 10:46:54;;;;;;;88.10;30.98;;;;;;;;;;5076300;28;20256;-84
2022/01/26 10:49:41;;;;;;;92.45;33.17;;;;;;;;;;5083360;28;20200;-77
2022/01/26 10:52:19;;;;;;;94.95;30.80;;;;;;;;;;5081384;28;20186;-79
2022/01/26 10:54:46;;;;;;;91.57;31.55;;;;;;;;;;5070463;28;20698;-81
2022/01/26 10:57:15;;;;;;;88.07;30.20;;;;;;;;;;5071977;28;20218;-79
2022/01/26 10:59:43;;;;;;;98.47;34.42;;;;;;;;;;5077351;28;20194;-81
2022/01/26 11:02:11;;;;;;;98.55;31.15;;;;;;;;;;5076434;28;20200;-81
2022/01/26 11:04:40;;;;;;;85.88;31.55;;;;;;;;;;5082628;28;20572;-77
2022/01/26 11:07:09;;;;;;;89.20;32.00;;;;;;;;;;5080859;28;20213;-80
2022/01/26 11:09:38;;;;;;;98.10;31.67;;;;;;;;;;5072297;28;20281;-81
2022/01/26 11:12:07;;;;;;;83.38;32.35;;;;;;;;;;5083423;28;20276;-81
2022/01/26 11:14:43;;;;;;;89.60;32.72;;;;;;;;;;5092029;28;20549;-78
2022/01/26 11:17:11;;;;;;;96.38;34.33;;;;;;;;;;5082625;28;20587;-79
2022/01/26 11:19:41;;;;;;;87.00;32.85;;;;;;;;;;5073119;28;20214;-79
2022/01/26 11:22:09;;;;;;;89.55;31.42;;;;;;;;;;5082681;28;20293;-78
2022/01/26 11:24:42;;;;;;;91.03;30.48;;;;;;;;;;5073788;28;20301;-78
2022/01/26 11:27:10;;;;;;;87.80;32.55;;;;;;;;;;5074481;28;20243;-78
2022/01/26 11:29:42;;;;;;;101.82;37.15;;;;;;;;;;5080551;28;20204;-78
2022/01/26 11:32:17;;;;;;;90.55;31.42;;;;;;;;;;5084649;28;20194;-78
2022/01/26 11:34:44;;;;;;;89.28;32.13;;;;;;;;;;5077132;28;20581;-81
2022/01/26 11:37:13;;;;;;;85.97;31.00;;;;;;;;;;5073019;28;21462;-79
2022/01/26 11:45:02;;;;;;;71.63;29.40;;;;;;;;;;5073848;28;20198;-83
2022/01/26 11:45:18;;;;;;;94.50;33.90;;;;;;;;;;5076493;28;20209;-79
2022/01/26 11:47:58;;;;;;;77.13;28.63;;;;;;;;;;5090170;28;20197;-79
2022/01/26 11:50:26;;;;;;;74.13;29.63;;;;;;;;;;5080440;28;20197;-78
2022/01/26 11:52:59;;;;;;;78.57;29.13;;;;;;;;;;5075178;28;20194;-78
2022/01/26 11:55:31;;;;;;;79.35;30.35;;;;;;;;;;5074702;28;20210;-80
2022/01/26 11:58:06;;;;;;;72.32;32.05;;;;;;;;;;5084621;28;20206;-79
2022/01/26 12:00:42;;;;;;;68.97;27.05;;;;;;;;;;5070906;28;20643;-78
2022/01/26 12:03:21;;;;;;;70.95;26.90;;;;;;;;;;5074114;28;20194;-82
2022/01/26 12:05:49;;;;;;;79.35;27.92;;;;;;;;;;5070561;28;20213;-78
2022/01/26 12:08:27;;;;;;;72.88;26.73;;;;;;;;;;5073090;28;20202;-80
2022/01/26 12:10:54;;;;;;;72.85;28.38;;;;;;;;;;5087553;28;20204;-77
2022/01/26 12:13:25;;;;;;;65.88;26.20;;;;;;;;;;5093486;28;20196;-77
2022/01/26 12:15:55;;;;;;;66.65;26.58;;;;;;;;;;5075665;28;20217;-78
2022/01/26 12:18:30;;;;;;;58.88;25.60;;;;;;;;;;5077661;28;20367;-80
2022/01/26 12:34:39;;;;;;;51.78;20.80;;;;;;;;;;5089934;28;20308;-78
2022/01/26 12:37:13;;;;;;;49.47;21.08;;;;;;;;;;5078016;28;21278;-77
2022/01/26 12:42:52;;;;;;;51.72;21.00;;;;;;;;;;5070013;28;20201;-79
2022/01/26 12:45:22;;;;;;;47.95;21.90;;;;;;;;;;5070124;28;20263;-80
2022/01/26 12:47:49;;;;;;;43.00;19.80;;;;;;;;;;5075220;28;20182;-79
2022/01/26 12:50:18;;;;;;;48.38;20.35;;;;;;;;;;5077688;28;20194;-78
2022/01/26 12:52:46;;;;;;;52.72;21.63;;;;;;;;;;5072998;28;20204;-78
2022/01/26 12:55:20;;;;;;;46.17;21.80;;;;;;;;;;5074668;28;20224;-80
2022/01/26 12:57:47;;;;;;;50.53;23.08;;;;;;;;;;5075291;28;20216;-78
2022/01/26 13:00:14;;;;;;;47.33;21.27;;;;;;;;;;5090327;28;20562;-80
2022/01/26 13:02:41;;;;;;;42.20;20.48;;;;;;;;;;5091087;28;20196;-80
2022/01/26 13:05:09;;;;;;;50.42;23.30;;;;;;;;;;5089292;28;20295;-80
2022/01/26 13:07:38;;;;;;;50.92;23.15;;;;;;;;;;5090311;28;20204;-81
2022/01/26 13:10:14;;;;;;;44.80;22.27;;;;;;;;;;5081153;28;20219;-82
2022/01/26 13:12:41;;;;;;;50.50;23.27;;;;;;;;;;5078950;28;20239;-80
2022/01/26 13:15:16;;;;;;;48.30;22.17;;;;;;;;;;5075988;28;20202;-79
2022/01/26 13:17:47;;;;;;;47.08;21.23;;;;;;;;;;5071622;28;20213;-85
2022/01/26 13:20:27;;;;;;;44.97;20.90;;;;;;;;;;5079177;28;20703;-85
2022/01/26 13:23:06;;;;;;;51.00;22.42;;;;;;;;;;5089915;28;20217;-80
2022/01/26 13:25:48;;;;;;;42.10;20.70;;;;;;;;;;5084474;28;20229;-79
2022/01/26 13:28:25;;;;;;;49.15;21.85;;;;;;;;;;5076516;28;20216;-79
2022/01/26 13:31:14;;;;;;;47.15;23.33;;;;;;;;;;5076178;28;20592;-78
2022/01/26 13:34:10;;;;;;;49.58;20.77;;;;;;;;;;5081256;28;20209;-79
2022/01/26 13:36:47;;;;;;;57.30;23.55;;;;;;;;;;5078595;28;20209;-78
2022/01/26 13:39:31;;;;;;;48.88;21.73;;;;;;;;;;5078327;28;20217;-82
2022/01/26 13:42:26;;;;;;;50.60;24.23;;;;;;;;;;5073939;28;20663;-80
2022/01/26 13:45:22;;;;;;;57.75;23.15;;;;;;;;;;5085366;28;20214;-79
2022/01/26 13:50:36;;;;;;;57.42;24.08;;;;;;;;;;5091231;28;20673;-80
2022/01/26 13:53:07;;;;;;;53.58;21.90;;;;;;;;;;5082153;28;20193;-80
2022/01/26 13:55:57;;;;;;;64.07;23.70;;;;;;;;;;5080603;28;20312;-78
2022/01/26 13:58:42;;;;;;;56.00;23.67;;;;;;;;;;5079572;28;20326;-81
2022/01/26 14:01:16;;;;;;;53.65;23.10;;;;;;;;;;5073830;28;20205;-78
2022/01/26 14:03:45;;;;;;;55.20;22.15;;;;;;;;;;5072606;28;20193;-80
2022/01/26 14:06:12;;;;;;;60.17;24.98;;;;;;;;;;5074094;28;20198;-78
2022/01/26 14:08:41;;;;;;;51.38;22.13;;;;;;;;;;5072852;28;20678;-77
2022/01/26 14:11:09;;;;;;;66.22;25.95;;;;;;;;;;5083860;28;20202;-83
2022/01/26 14:13:37;;;;;;;58.85;23.88;;;;;;;;;;5081493;28;20631;-78
2022/01/26 14:16:08;;;;;;;63.08;25.15;;;;;;;;;;5078990;28;20191;-76
2022/01/26 14:18:46;;;;;;;56.42;23.48;;;;;;;;;;5078360;28;20271;-75
2022/01/26 14:24:11;;;;;;;55.65;22.42;;;;;;;;;;5076282;28;20201;-79
2022/01/26 14:26:43;;;;;;;60.75;23.70;;;;;;;;;;5083882;28;20559;-76
2022/01/26 14:29:19;;;;;;;57.88;23.58;;;;;;;;;;5091835;28;20212;-82
2022/01/26 14:32:02;;;;;;;54.53;22.38;;;;;;;;;;5090754;28;20201;-77
2022/01/26 14:40:30;;;;;;;56.83;25.75;;;;;;;;;;5091241;28;20224;-75
2022/01/26 14:50:59;;;;;;;48.72;22.95;;;;;;;;;;5079516;28;20247;-79
2022/01/26 14:56:17;;;;;;;52.95;23.75;;;;;;;;;;5093516;28;20190;-81
2022/01/26 15:33:45;;;;;;;52.03;23.80;;;;;;;;;;5091352;28;20302;-81
2022/01/26 15:41:55;;;;;;;49.88;22.27;;;;;;;;;;5081943;28;20281;-78
2022/01/26 15:44:37;;;;;;;53.25;23.15;;;;;;;;;;5074474;28;20242;-77
2022/01/26 15:49:53;;;;;;;51.28;22.65;;;;;;;;;;5083092;28;20204;-78
2022/01/26 15:52:41;;;;;;;50.25;20.95;;;;;;;;;;5090002;28;20194;-81
2022/01/26 15:58:10;;;;;;;45.75;20.58;;;;;;;;;;5091941;28;20197;-79
2022/01/26 16:06:07;;;;;;;49.00;20.65;;;;;;;;;;5093750;28;20213;-82
2022/01/26 16:16:58;;;;;;;55.40;24.27;;;;;;;;;;5090414;28;20311;-82
2022/01/26 16:36:01;;;;;;;73.95;26.45;;;;;;;;;;5090660;28;20221;-76
2022/01/26 16:38:48;;;;;;;60.10;26.60;;;;;;;;;;5070684;28;20299;-81
2022/01/26 17:24:28;;;;;;;45.83;21.42;;;;;;;;;;5077179;28;20266;-78
2022/01/26 17:43:16;;;;;;;45.60;17.60;;;;;;;;;;5079766;28;20217;-78
2022/01/26 18:13:11;;;;;;;39.80;18.95;;;;;;;;;;5076085;28;20238;-80
2022/01/26 18:15:42;;;;;;;47.13;20.17;;;;;;;;;;5072423;28;20206;-79
2022/01/26 18:26:25;;;;;;;36.13;17.90;;;;;;;;;;5076099;28;20208;-80
2022/01/26 18:40:13;;;;;;;37.58;17.67;;;;;;;;;;5074584;28;20218;-81
2022/01/26 18:50:39;;;;;;;35.83;17.00;;;;;;;;;;5076123;28;20658;-79
2022/01/26 18:53:07;;;;;;;32.65;16.98;;;;;;;;;;5083830;28;20197;-78
2022/01/26 18:55:35;;;;;;;38.40;18.00;;;;;;;;;;5079627;28;20221;-83
2022/01/26 18:58:02;;;;;;;40.42;16.52;;;;;;;;;;5091026;28;20575;-79
2022/01/26 19:00:30;;;;;;;40.65;16.80;;;;;;;;;;5081458;28;20190;-77
2022/01/26 19:03:13;;;;;;;36.75;16.63;;;;;;;;;;5074276;28;20201;-79
2022/01/26 19:05:40;;;;;;;30.13;14.77;;;;;;;;;;5088402;28;20743;-77
2022/01/26 19:08:08;;;;;;;33.55;16.88;;;;;;;;;;5090542;28;20546;-81
2022/01/26 19:10:37;;;;;;;30.67;14.95;;;;;;;;;;5088086;28;20198;-79
2022/01/26 19:13:05;;;;;;;33.55;17.25;;;;;;;;;;5074647;28;20201;-79
2022/01/26 19:15:34;;;;;;;31.13;16.02;;;;;;;;;;5076202;28;20214;-83
2022/01/26 19:18:06;;;;;;;34.47;16.90;;;;;;;;;;5069090;28;20190;-79
2022/01/26 19:20:45;;;;;;;29.33;13.73;;;;;;;;;;5078026;28;20252;-77
2022/01/26 19:23:29;;;;;;;34.88;16.05;;;;;;;;;;5089282;28;20193;-81
2022/01/26 19:26:01;;;;;;;34.22;15.77;;;;;;;;;;5089497;28;20212;-80
2022/01/26 19:28:37;;;;;;;29.40;16.38;;;;;;;;;;5080363;28;20197;-83
2022/01/26 19:45:05;;;;;;;27.80;14.25;;;;;;;;;;5111158;27;20672;-80
2022/01/26 19:52:56;;;;;;;24.70;12.10;;;;;;;;;;5115066;28;20577;-77
2022/01/26 19:55:24;;;;;;;28.65;14.70;;;;;;;;;;5121561;28;20315;-80